Time;durP1;ratioP1;P1;durP2;ratioP2;P2;SDS_P1;SDS_P2;PMS_P1;PMS_P2;Temp;Humidity;BMP_temperature;BMP_pressure;BME280_temperature;BME280_humidity;BME280_pressure;Samples;Min_cycle;Max_cycle;Signal;HPM_P1;HPM_P2
2022/08/09 00:00:31;;;;;;;3.33;2.00;;;;;;;;;;5068112;28;20422;-65
2022/08/09 00:03:17;;;;;;;1.70;1.60;;;;;;;;;;5082934;28;20044;-62
2022/08/09 00:06:03;;;;;;;4.55;1.88;;;;;;;;;;5089393;28;20390;-65
2022/08/09 00:08:49;;;;;;;3.60;1.70;;;;;;;;;;5077633;28;20036;-63
2022/08/09 00:11:35;;;;;;;2.10;1.45;;;;;;;;;;5093022;28;20067;-64
2022/08/09 00:14:22;;;;;;;6.82;1.60;;;;;;;;;;5099386;28;21448;-63
2022/08/09 00:17:07;;;;;;;5.65;1.70;;;;;;;;;;5089718;28;20028;-64
2022/08/09 00:19:53;;;;;;;2.17;1.60;;;;;;;;;;5084141;28;20040;-64
2022/08/09 00:22:38;;;;;;;7.07;2.33;;;;;;;;;;5075485;28;20051;-64
2022/08/09 00:25:24;;;;;;;2.95;1.55;;;;;;;;;;5082181;28;20175;-64
2022/08/09 00:28:10;;;;;;;6.35;1.77;;;;;;;;;;5081419;28;20486;-64
2022/08/09 00:30:57;;;;;;;2.17;1.50;;;;;;;;;;5087724;28;20143;-63
2022/08/09 00:33:42;;;;;;;3.38;1.40;;;;;;;;;;5085208;28;20043;-64
2022/08/09 00:36:28;;;;;;;2.50;1.48;;;;;;;;;;5084383;28;20115;-63
2022/08/09 00:39:14;;;;;;;2.40;1.45;;;;;;;;;;5064843;28;20032;-63
2022/08/09 00:41:59;;;;;;;4.95;1.70;;;;;;;;;;5072714;28;20137;-65
2022/08/09 00:44:45;;;;;;;3.95;1.88;;;;;;;;;;5086284;28;20430;-64
2022/08/09 00:47:31;;;;;;;3.47;2.08;;;;;;;;;;5098252;28;20024;-64
2022/08/09 00:50:16;;;;;;;2.58;1.70;;;;;;;;;;5082945;28;20411;-64
2022/08/09 00:53:02;;;;;;;4.22;1.63;;;;;;;;;;5075973;28;20046;-64
2022/08/09 00:55:48;;;;;;;5.25;2.00;;;;;;;;;;5084655;28;20103;-65
2022/08/09 00:58:34;;;;;;;2.75;1.58;;;;;;;;;;5085935;28;20946;-61
2022/08/09 01:01:22;;;;;;;2.90;1.92;;;;;;;;;;5086400;28;20533;-61
2022/08/09 01:04:11;;;;;;;3.70;1.55;;;;;;;;;;5078896;28;20625;-60
2022/08/09 01:07:02;;;;;;;3.08;1.40;;;;;;;;;;5087537;28;20051;-62
2022/08/09 01:09:53;;;;;;;3.80;1.70;;;;;;;;;;5085792;28;20062;-62
2022/08/09 01:12:39;;;;;;;2.83;1.58;;;;;;;;;;5077718;28;20036;-61
2022/08/09 01:15:27;;;;;;;3.60;1.55;;;;;;;;;;5087279;28;20029;-66
2022/08/09 01:18:15;;;;;;;1.50;1.40;;;;;;;;;;5094664;28;20028;-62
2022/08/09 01:21:19;;;;;;;4.47;1.60;;;;;;;;;;5083858;28;20051;-64
2022/08/09 01:24:25;;;;;;;3.38;1.63;;;;;;;;;;5089316;28;20023;-59
2022/08/09 01:27:11;;;;;;;2.63;1.38;;;;;;;;;;5087767;28;20368;-59
2022/08/09 01:29:59;;;;;;;4.10;1.60;;;;;;;;;;5089851;28;20036;-59
2022/08/09 01:32:54;;;;;;;1.60;1.40;;;;;;;;;;5080407;28;20147;-60
2022/08/09 01:35:43;;;;;;;3.05;1.92;;;;;;;;;;5087398;28;20086;-60
2022/08/09 01:38:30;;;;;;;1.98;1.70;;;;;;;;;;5088686;28;20490;-68
2022/08/09 01:41:18;;;;;;;3.13;2.20;;;;;;;;;;5077808;28;20042;-67
2022/08/09 01:44:04;;;;;;;2.97;2.15;;;;;;;;;;5081834;28;20437;-66
2022/08/09 01:46:50;;;;;;;3.05;1.50;;;;;;;;;;5086324;28;20350;-67
2022/08/09 01:49:36;;;;;;;3.85;1.58;;;;;;;;;;5092700;28;20152;-67
2022/08/09 01:52:22;;;;;;;3.55;1.73;;;;;;;;;;5095341;28;20063;-63
2022/08/09 01:55:09;;;;;;;3.75;1.80;;;;;;;;;;5076265;28;20040;-64
2022/08/09 01:57:55;;;;;;;3.50;2.00;;;;;;;;;;5090574;28;20035;-63
2022/08/09 02:00:42;;;;;;;3.38;1.90;;;;;;;;;;5081754;28;20111;-64
2022/08/09 02:03:29;;;;;;;3.53;1.52;;;;;;;;;;5087899;28;20066;-65
2022/08/09 02:06:15;;;;;;;2.83;1.67;;;;;;;;;;5082210;28;20039;-63
2022/08/09 02:09:01;;;;;;;2.25;1.50;;;;;;;;;;5083698;28;20028;-65
2022/08/09 02:11:46;;;;;;;2.17;1.98;;;;;;;;;;5079385;28;20032;-61
2022/08/09 02:14:33;;;;;;;2.42;1.65;;;;;;;;;;5087495;28;20371;-64
2022/08/09 02:17:22;;;;;;;2.65;1.50;;;;;;;;;;5081112;28;20107;-64
2022/08/09 02:20:08;;;;;;;2.97;1.73;;;;;;;;;;5089312;28;20031;-64
2022/08/09 02:22:59;;;;;;;3.40;1.42;;;;;;;;;;5099782;28;20226;-65
2022/08/09 02:25:46;;;;;;;5.53;1.73;;;;;;;;;;5089248;28;20024;-65
2022/08/09 02:28:34;;;;;;;3.50;1.70;;;;;;;;;;5090719;28;20051;-61
2022/08/09 02:31:21;;;;;;;5.75;1.77;;;;;;;;;;5078906;28;20072;-67
2022/08/09 02:34:09;;;;;;;2.15;1.65;;;;;;;;;;5077047;28;20031;-67
2022/08/09 02:36:56;;;;;;;2.38;1.67;;;;;;;;;;5082444;28;20111;-67
2022/08/09 02:39:45;;;;;;;2.53;1.40;;;;;;;;;;5085042;28;20111;-67
2022/08/09 02:42:33;;;;;;;2.25;1.50;;;;;;;;;;5089469;28;20028;-66
2022/08/09 02:45:22;;;;;;;4.07;1.52;;;;;;;;;;5089835;28;20059;-66
2022/08/09 02:48:08;;;;;;;2.97;1.60;;;;;;;;;;5083613;28;20028;-65
2022/08/09 02:50:55;;;;;;;3.88;1.70;;;;;;;;;;5086890;28;20078;-61
2022/08/09 02:53:44;;;;;;;4.82;2.08;;;;;;;;;;5086800;28;20081;-61
2022/08/09 02:56:30;;;;;;;3.00;1.40;;;;;;;;;;5095360;28;20085;-62
2022/08/09 02:59:17;;;;;;;2.63;1.65;;;;;;;;;;5071937;28;20036;-62
2022/08/09 03:02:04;;;;;;;3.25;2.05;;;;;;;;;;5085457;28;20035;-62
2022/08/09 03:04:52;;;;;;;3.10;1.60;;;;;;;;;;5076207;28;20036;-61
2022/08/09 03:07:39;;;;;;;3.15;1.58;;;;;;;;;;5088851;28;20031;-62
2022/08/09 03:10:24;;;;;;;4.25;1.85;;;;;;;;;;5084055;28;20107;-63
2022/08/09 03:13:12;;;;;;;4.53;2.17;;;;;;;;;;5073719;28;20054;-64
2022/08/09 03:15:58;;;;;;;2.83;2.08;;;;;;;;;;5086752;28;20516;-65
2022/08/09 03:18:47;;;;;;;4.28;2.25;;;;;;;;;;5089715;28;20032;-64
2022/08/09 03:21:34;;;;;;;3.05;1.70;;;;;;;;;;5089584;28;20039;-65
2022/08/09 03:24:20;;;;;;;2.67;1.85;;;;;;;;;;5086284;28;20051;-62
2022/08/09 03:27:07;;;;;;;3.25;1.80;;;;;;;;;;5100787;28;20065;-60
2022/08/09 03:29:53;;;;;;;3.50;1.80;;;;;;;;;;5088504;28;20032;-60
2022/08/09 03:32:39;;;;;;;2.72;1.73;;;;;;;;;;5103732;28;20020;-60
2022/08/09 03:35:25;;;;;;;2.05;1.60;;;;;;;;;;5089396;28;20027;-66
2022/08/09 03:38:11;;;;;;;2.58;1.98;;;;;;;;;;5068691;28;20378;-60
2022/08/09 03:40:56;;;;;;;3.22;1.65;;;;;;;;;;5083707;28;20082;-60
2022/08/09 03:43:43;;;;;;;4.63;1.95;;;;;;;;;;5092218;28;20064;-66
2022/08/09 03:46:28;;;;;;;2.30;1.98;;;;;;;;;;5070226;28;20043;-65
2022/08/09 03:49:15;;;;;;;2.22;1.83;;;;;;;;;;5089644;28;20032;-65
2022/08/09 03:52:01;;;;;;;5.43;2.55;;;;;;;;;;5084566;28;20032;-65
2022/08/09 03:54:48;;;;;;;2.03;1.70;;;;;;;;;;5092578;28;20028;-64
2022/08/09 03:57:34;;;;;;;3.83;2.20;;;;;;;;;;5093888;28;20314;-64
2022/08/09 04:00:19;;;;;;;5.30;2.67;;;;;;;;;;5080707;28;20030;-64
2022/08/09 04:03:05;;;;;;;5.10;2.25;;;;;;;;;;5089837;28;20100;-66
2022/08/09 04:05:51;;;;;;;3.72;2.35;;;;;;;;;;5094222;28;20028;-63
2022/08/09 04:08:36;;;;;;;2.00;1.80;;;;;;;;;;5093274;28;20447;-61
2022/08/09 04:11:22;;;;;;;2.42;1.98;;;;;;;;;;5076590;28;20063;-60
2022/08/09 04:14:07;;;;;;;4.72;2.72;;;;;;;;;;5079669;28;20040;-60
2022/08/09 04:16:53;;;;;;;4.28;2.30;;;;;;;;;;5074034;28;20036;-60
2022/08/09 04:19:39;;;;;;;3.75;2.33;;;;;;;;;;5091885;28;20032;-67
2022/08/09 04:22:24;;;;;;;3.85;2.17;;;;;;;;;;5092677;28;20078;-63
2022/08/09 04:25:10;;;;;;;3.65;2.30;;;;;;;;;;5076207;28;20020;-66
2022/08/09 04:27:56;;;;;;;3.50;2.28;;;;;;;;;;5083892;28;20023;-63
2022/08/09 04:30:42;;;;;;;4.28;2.85;;;;;;;;;;5098054;28;20032;-63
2022/08/09 04:33:27;;;;;;;6.03;3.13;;;;;;;;;;5082576;28;20031;-63
2022/08/09 04:36:13;;;;;;;3.25;2.25;;;;;;;;;;5085129;28;20113;-63
2022/08/09 04:38:59;;;;;;;3.95;2.25;;;;;;;;;;5086945;28;20394;-64
2022/08/09 04:41:46;;;;;;;2.50;2.30;;;;;;;;;;5081763;28;20251;-68
2022/08/09 04:44:31;;;;;;;2.75;2.38;;;;;;;;;;5079292;28;20031;-67
2022/08/09 04:47:17;;;;;;;3.67;2.50;;;;;;;;;;5065940;28;20029;-68
2022/08/09 04:50:02;;;;;;;3.20;2.60;;;;;;;;;;5083456;28;20467;-67
2022/08/09 04:52:48;;;;;;;4.25;2.33;;;;;;;;;;5081643;28;20020;-68
2022/08/09 04:55:34;;;;;;;3.13;2.30;;;;;;;;;;5085782;28;20107;-63
2022/08/09 04:58:19;;;;;;;3.95;2.55;;;;;;;;;;5077970;28;20031;-63
2022/08/09 05:01:05;;;;;;;3.80;2.33;;;;;;;;;;5091847;28;20415;-68
2022/08/09 05:03:50;;;;;;;4.80;2.22;;;;;;;;;;5090529;28;20085;-66
2022/08/09 05:06:36;;;;;;;6.22;3.13;;;;;;;;;;5086253;28;20440;-65
2022/08/09 05:09:21;;;;;;;5.78;2.00;;;;;;;;;;5081811;28;20493;-65
2022/08/09 05:12:07;;;;;;;3.72;2.20;;;;;;;;;;5089311;28;20448;-65
2022/08/09 05:14:52;;;;;;;3.88;2.42;;;;;;;;;;5085016;28;20063;-67
2022/08/09 05:17:38;;;;;;;5.38;2.13;;;;;;;;;;5079952;28;20077;-66
2022/08/09 05:20:24;;;;;;;5.57;2.65;;;;;;;;;;5083231;28;20031;-66
2022/08/09 05:23:10;;;;;;;5.43;2.33;;;;;;;;;;5087814;28;20036;-66
2022/08/09 05:25:56;;;;;;;3.92;2.15;;;;;;;;;;5084153;28;20031;-67
2022/08/09 05:28:41;;;;;;;4.30;2.35;;;;;;;;;;5070120;28;20028;-65
2022/08/09 05:31:27;;;;;;;4.82;2.70;;;;;;;;;;5085963;28;20040;-66
2022/08/09 05:34:14;;;;;;;3.88;2.47;;;;;;;;;;5093117;28;20031;-60
2022/08/09 05:37:01;;;;;;;6.07;2.60;;;;;;;;;;5084123;28;20052;-72
2022/08/09 05:39:46;;;;;;;5.78;2.22;;;;;;;;;;5072669;28;20059;-73
2022/08/09 05:42:32;;;;;;;4.55;2.20;;;;;;;;;;5092266;28;20032;-72
2022/08/09 05:45:18;;;;;;;6.15;2.47;;;;;;;;;;5084185;28;20020;-72
2022/08/09 05:48:04;;;;;;;7.00;2.10;;;;;;;;;;5091058;28;20028;-72
2022/08/09 05:50:49;;;;;;;4.65;2.50;;;;;;;;;;5087936;28;20085;-73
2022/08/09 05:53:35;;;;;;;4.93;2.67;;;;;;;;;;5089151;28;20561;-68
2022/08/09 05:56:20;;;;;;;6.53;2.53;;;;;;;;;;5086668;28;20028;-70
2022/08/09 05:59:07;;;;;;;7.30;2.45;;;;;;;;;;5092825;28;20036;-71
2022/08/09 06:01:53;;;;;;;5.10;2.40;;;;;;;;;;5063704;28;20048;-69
2022/08/09 06:04:40;;;;;;;4.15;2.40;;;;;;;;;;5066824;28;20059;-70
2022/08/09 06:07:26;;;;;;;6.13;2.40;;;;;;;;;;5108538;28;20081;-68
2022/08/09 06:10:14;;;;;;;15.18;3.30;;;;;;;;;;5078843;28;20074;-80
2022/08/09 06:12:59;;;;;;;7.65;2.50;;;;;;;;;;5095761;28;20032;-73
2022/08/09 06:15:45;;;;;;;8.05;2.75;;;;;;;;;;5098260;28;20035;-71
2022/08/09 06:18:31;;;;;;;4.60;2.20;;;;;;;;;;5098367;28;20367;-71
2022/08/09 06:21:17;;;;;;;4.15;2.10;;;;;;;;;;5093252;27;20028;-72
2022/08/09 06:24:02;;;;;;;3.85;2.13;;;;;;;;;;5094987;28;20098;-71
2022/08/09 06:26:48;;;;;;;4.90;2.20;;;;;;;;;;5096168;28;20066;-72
2022/08/09 06:29:34;;;;;;;6.55;2.45;;;;;;;;;;5089012;28;20020;-71
2022/08/09 06:32:19;;;;;;;4.47;2.17;;;;;;;;;;5108951;28;20032;-69
2022/08/09 06:35:05;;;;;;;8.20;2.45;;;;;;;;;;5082650;28;20031;-69
2022/08/09 06:37:51;;;;;;;5.63;2.67;;;;;;;;;;5087210;28;20063;-68
2022/08/09 06:40:37;;;;;;;4.10;2.28;;;;;;;;;;5103086;28;20069;-68
2022/08/09 06:43:23;;;;;;;5.43;2.72;;;;;;;;;;5086603;28;20041;-69
2022/08/09 06:46:08;;;;;;;6.15;2.60;;;;;;;;;;5082469;28;20047;-73
2022/08/09 06:48:54;;;;;;;6.05;2.63;;;;;;;;;;5084113;28;20488;-82
2022/08/09 06:51:39;;;;;;;6.68;2.88;;;;;;;;;;5091863;28;20028;-79
2022/08/09 06:54:25;;;;;;;6.80;3.47;;;;;;;;;;5092985;28;20027;-81
2022/08/09 06:57:10;;;;;;;8.38;2.72;;;;;;;;;;5094911;28;20058;-83
2022/08/09 06:59:56;;;;;;;6.22;3.17;;;;;;;;;;5097411;28;20079;-81
2022/08/09 07:02:43;;;;;;;9.80;2.50;;;;;;;;;;5084700;28;20029;-80
2022/08/09 07:05:29;;;;;;;7.95;3.30;;;;;;;;;;5088496;28;20078;-80
2022/08/09 07:08:14;;;;;;;10.05;3.30;;;;;;;;;;5093343;28;20429;-69
2022/08/09 07:11:02;;;;;;;8.32;3.00;;;;;;;;;;5104121;28;20042;-69
2022/08/09 07:13:47;;;;;;;8.27;3.15;;;;;;;;;;5102321;28;20035;-69
2022/08/09 07:16:33;;;;;;;5.18;2.70;;;;;;;;;;5085280;28;20029;-70
2022/08/09 07:19:19;;;;;;;4.30;2.40;;;;;;;;;;5101978;28;20027;-69
2022/08/09 07:22:04;;;;;;;7.65;3.13;;;;;;;;;;5085214;28;20024;-69
2022/08/09 07:24:50;;;;;;;11.60;4.05;;;;;;;;;;5082654;28;20082;-84
2022/08/09 07:27:40;;;;;;;6.65;3.00;;;;;;;;;;5088498;28;20135;-72
2022/08/09 07:30:25;;;;;;;5.85;2.40;;;;;;;;;;5091982;28;20038;-70
2022/08/09 07:33:11;;;;;;;7.82;3.33;;;;;;;;;;5094618;28;20086;-71
2022/08/09 07:35:57;;;;;;;10.60;3.65;;;;;;;;;;5091222;28;20059;-71
2022/08/09 07:38:43;;;;;;;8.45;3.10;;;;;;;;;;5069929;28;20123;-72
2022/08/09 07:41:28;;;;;;;5.13;2.75;;;;;;;;;;5097217;27;20024;-83
2022/08/09 07:44:14;;;;;;;9.80;2.70;;;;;;;;;;5087105;28;20541;-72
2022/08/09 07:46:59;;;;;;;6.07;3.22;;;;;;;;;;5084421;28;20050;-73
2022/08/09 07:49:45;;;;;;;5.85;2.40;;;;;;;;;;5075918;28;20044;-70
2022/08/09 07:52:30;;;;;;;6.88;2.70;;;;;;;;;;5097466;28;20015;-72
2022/08/09 07:55:16;;;;;;;3.40;2.25;;;;;;;;;;5097416;28;20045;-71
2022/08/09 07:58:02;;;;;;;9.43;2.72;;;;;;;;;;5089672;28;20032;-71
2022/08/09 08:00:47;;;;;;;12.13;3.33;;;;;;;;;;5095481;28;20028;-82
2022/08/09 08:03:33;;;;;;;7.13;2.28;;;;;;;;;;5089514;28;20120;-82
2022/08/09 08:06:18;;;;;;;9.48;2.78;;;;;;;;;;5079332;28;20024;-83
2022/08/09 08:09:04;;;;;;;4.97;2.50;;;;;;;;;;5084069;28;20043;-87
2022/08/09 08:11:50;;;;;;;6.38;2.90;;;;;;;;;;5108148;28;20036;-84
2022/08/09 08:14:35;;;;;;;6.53;2.40;;;;;;;;;;5097801;28;20245;-86
2022/08/09 08:17:21;;;;;;;7.68;2.78;;;;;;;;;;5101269;28;20030;-82
2022/08/09 08:20:07;;;;;;;6.30;2.92;;;;;;;;;;5091148;28;20537;-71
2022/08/09 08:22:52;;;;;;;3.58;2.30;;;;;;;;;;5095737;28;20073;-75
2022/08/09 08:25:38;;;;;;;4.82;2.22;;;;;;;;;;5084165;28;20706;-81
2022/08/09 08:28:23;;;;;;;6.63;2.40;;;;;;;;;;5096324;28;20035;-77
2022/08/09 08:31:09;;;;;;;9.07;3.50;;;;;;;;;;5085526;28;20059;-77
2022/08/09 08:33:54;;;;;;;5.55;2.67;;;;;;;;;;5090164;28;20524;-78
2022/08/09 08:36:40;;;;;;;6.45;2.22;;;;;;;;;;5093577;28;20084;-70
2022/08/09 08:39:26;;;;;;;3.72;2.13;;;;;;;;;;5092919;28;20479;-75
2022/08/09 08:42:12;;;;;;;4.75;2.22;;;;;;;;;;5098343;28;20043;-76
2022/08/09 08:44:59;;;;;;;8.00;2.20;;;;;;;;;;5097806;28;20042;-74
2022/08/09 08:47:45;;;;;;;6.60;2.95;;;;;;;;;;5093812;28;20040;-75
2022/08/09 08:50:30;;;;;;;4.18;2.13;;;;;;;;;;5092886;28;20110;-76
2022/08/09 08:53:16;;;;;;;7.50;2.10;;;;;;;;;;5080112;28;20462;-76
2022/08/09 08:56:02;;;;;;;3.00;2.13;;;;;;;;;;5091766;28;20110;-74
2022/08/09 08:58:47;;;;;;;3.78;1.70;;;;;;;;;;5092329;28;20039;-74
2022/08/09 09:01:37;;;;;;;3.45;1.80;;;;;;;;;;5086993;28;20032;-72
2022/08/09 09:04:26;;;;;;;5.68;1.70;;;;;;;;;;5093714;28;20056;-72
2022/08/09 09:07:14;;;;;;;5.93;1.95;;;;;;;;;;5100108;28;20054;-73
2022/08/09 09:10:02;;;;;;;4.25;2.25;;;;;;;;;;5089708;28;20474;-75
2022/08/09 09:12:48;;;;;;;4.65;2.00;;;;;;;;;;5094039;28;20031;-73
2022/08/09 09:15:34;;;;;;;3.40;1.80;;;;;;;;;;5096660;28;20090;-69
2022/08/09 09:18:19;;;;;;;2.72;1.77;;;;;;;;;;5097918;28;20019;-68
2022/08/09 09:21:05;;;;;;;3.92;1.98;;;;;;;;;;5091016;28;20038;-68
2022/08/09 09:23:51;;;;;;;3.45;2.13;;;;;;;;;;5090241;28;20440;-69
2022/08/09 09:26:37;;;;;;;3.00;1.85;;;;;;;;;;5080487;28;20028;-68
2022/08/09 09:29:33;;;;;;;5.80;1.60;;;;;;;;;;5087205;28;20398;-67
2022/08/09 09:32:28;;;;;;;3.70;2.22;;;;;;;;;;5093101;28;20036;-70
2022/08/09 09:35:13;;;;;;;6.15;1.88;;;;;;;;;;5094718;28;20027;-73
2022/08/09 09:37:59;;;;;;;3.05;1.50;;;;;;;;;;5071165;28;20386;-71
2022/08/09 09:40:45;;;;;;;3.65;1.60;;;;;;;;;;5084817;28;20082;-70
2022/08/09 09:43:30;;;;;;;5.57;2.08;;;;;;;;;;5094687;28;20074;-71
2022/08/09 09:46:16;;;;;;;5.68;2.08;;;;;;;;;;5092783;28;20031;-72
2022/08/09 09:49:09;;;;;;;4.38;2.15;;;;;;;;;;5086645;28;20341;-70
2022/08/09 09:52:01;;;;;;;3.97;1.52;;;;;;;;;;5098424;28;20026;-68
2022/08/09 09:54:47;;;;;;;4.03;1.63;;;;;;;;;;5079433;28;20432;-78
2022/08/09 09:57:33;;;;;;;3.15;2.17;;;;;;;;;;5082653;28;20020;-76
2022/08/09 10:00:22;;;;;;;4.47;1.83;;;;;;;;;;5097008;28;20077;-79
2022/08/09 10:03:08;;;;;;;3.78;1.55;;;;;;;;;;5077914;28;20071;-82
2022/08/09 10:05:59;;;;;;;5.35;1.83;;;;;;;;;;5086938;28;20059;-78
2022/08/09 10:08:46;;;;;;;3.05;1.65;;;;;;;;;;5082654;28;20104;-74
2022/08/09 10:11:32;;;;;;;3.63;1.65;;;;;;;;;;5090588;28;20023;-68
2022/08/09 10:14:25;;;;;;;6.35;1.67;;;;;;;;;;5082685;28;20032;-67
2022/08/09 10:17:11;;;;;;;3.53;1.42;;;;;;;;;;5073034;28;20025;-68
2022/08/09 10:19:57;;;;;;;2.70;1.65;;;;;;;;;;5074899;28;20039;-68
2022/08/09 10:22:42;;;;;;;3.05;1.80;;;;;;;;;;5087701;28;20036;-67
2022/08/09 10:25:29;;;;;;;3.92;1.88;;;;;;;;;;5083735;28;20031;-67
2022/08/09 10:28:14;;;;;;;2.67;1.80;;;;;;;;;;5082875;28;20543;-69
2022/08/09 10:31:00;;;;;;;1.73;1.50;;;;;;;;;;5079579;28;20124;-79
2022/08/09 10:33:46;;;;;;;3.05;1.77;;;;;;;;;;5078291;28;20047;-79
2022/08/09 10:36:32;;;;;;;2.05;1.60;;;;;;;;;;5080704;28;20099;-79
2022/08/09 10:39:17;;;;;;;5.10;1.90;;;;;;;;;;5072559;28;20024;-78
2022/08/09 10:42:04;;;;;;;2.28;1.30;;;;;;;;;;5074820;28;20039;-77
2022/08/09 10:44:59;;;;;;;2.83;1.73;;;;;;;;;;5071576;28;20032;-80
2022/08/09 10:47:55;;;;;;;4.65;1.90;;;;;;;;;;5084780;28;20502;-74
2022/08/09 10:51:08;;;;;;;4.57;1.60;;;;;;;;;;5088265;28;20054;-72
2022/08/09 10:53:58;;;;;;;1.80;1.58;;;;;;;;;;5066537;28;20037;-69
2022/08/09 10:56:44;;;;;;;4.07;2.05;;;;;;;;;;5065853;28;20040;-71
2022/08/09 10:59:30;;;;;;;4.25;1.45;;;;;;;;;;5089983;28;20027;-69
2022/08/09 11:02:34;;;;;;;3.63;1.90;;;;;;;;;;5092855;28;20040;-72
2022/08/09 11:05:21;;;;;;;9.00;2.30;;;;;;;;;;5084153;28;20028;-70
2022/08/09 11:08:35;;;;;;;3.05;1.77;;;;;;;;;;5073866;28;20039;-66
2022/08/09 11:11:22;;;;;;;2.65;1.42;;;;;;;;;;5088001;28;20020;-68
2022/08/09 11:14:26;;;;;;;4.13;1.73;;;;;;;;;;5092901;28;20035;-69
2022/08/09 11:17:14;;;;;;;3.65;1.83;;;;;;;;;;5087460;28;20035;-68
2022/08/09 11:20:08;;;;;;;3.50;2.05;;;;;;;;;;5094037;28;20046;-68
2022/08/09 11:22:55;;;;;;;5.53;1.45;;;;;;;;;;5088267;28;20384;-74
2022/08/09 11:25:44;;;;;;;4.10;1.40;;;;;;;;;;5084604;28;20032;-75
2022/08/09 11:28:32;;;;;;;2.10;1.52;;;;;;;;;;5095486;28;20016;-77
2022/08/09 11:31:36;;;;;;;2.67;1.63;;;;;;;;;;5098523;28;20039;-75
2022/08/09 11:34:41;;;;;;;1.48;1.10;;;;;;;;;;5087261;28;20028;-77
2022/08/09 11:37:28;;;;;;;2.28;1.45;;;;;;;;;;5081165;28;20039;-76
2022/08/09 11:40:16;;;;;;;3.83;1.55;;;;;;;;;;5084820;28;20097;-74
2022/08/09 11:43:01;;;;;;;2.92;1.52;;;;;;;;;;5080107;28;20593;-73
2022/08/09 11:45:54;;;;;;;3.17;1.58;;;;;;;;;;5088239;28;20043;-73
2022/08/09 11:48:51;;;;;;;2.95;1.50;;;;;;;;;;5076348;28;20364;-74
2022/08/09 11:51:55;;;;;;;2.35;1.65;;;;;;;;;;5087488;28;20089;-73
2022/08/09 11:54:40;;;;;;;3.65;1.65;;;;;;;;;;5090695;28;20422;-73
2022/08/09 11:57:37;;;;;;;1.40;1.25;;;;;;;;;;5096733;28;20032;-73
2022/08/09 12:00:24;;;;;;;2.78;1.25;;;;;;;;;;5086637;28;20441;-73
2022/08/09 12:03:13;;;;;;;1.98;1.58;;;;;;;;;;5081839;28;20032;-73
2022/08/09 12:06:01;;;;;;;3.50;1.50;;;;;;;;;;5077985;28;20059;-74
2022/08/09 12:08:51;;;;;;;2.42;1.48;;;;;;;;;;5092868;28;20066;-70
2022/08/09 12:11:36;;;;;;;5.78;1.67;;;;;;;;;;5072261;28;20048;-74
2022/08/09 12:14:28;;;;;;;4.05;1.58;;;;;;;;;;5090569;28;20032;-72
2022/08/09 12:17:14;;;;;;;4.82;1.45;;;;;;;;;;5087067;28;20020;-72
2022/08/09 12:20:02;;;;;;;3.58;1.30;;;;;;;;;;5085151;28;20032;-68
2022/08/09 12:22:50;;;;;;;2.33;1.50;;;;;;;;;;5095703;28;20039;-68
2022/08/09 12:25:36;;;;;;;4.32;1.58;;;;;;;;;;5083069;28;20107;-68
2022/08/09 12:28:22;;;;;;;1.88;1.40;;;;;;;;;;5060171;28;20029;-69
2022/08/09 12:31:17;;;;;;;2.72;1.52;;;;;;;;;;5074155;28;20031;-69
2022/08/09 12:34:03;;;;;;;2.40;1.30;;;;;;;;;;5081034;28;20054;-69
2022/08/09 12:36:52;;;;;;;5.40;1.42;;;;;;;;;;5069893;28;20032;-77
2022/08/09 12:39:38;;;;;;;3.15;1.30;;;;;;;;;;5092683;28;20417;-77
2022/08/09 12:42:24;;;;;;;3.55;1.40;;;;;;;;;;5070193;28;20033;-77
2022/08/09 12:45:10;;;;;;;3.47;1.80;;;;;;;;;;5086988;28;20027;-81
2022/08/09 12:47:56;;;;;;;5.65;1.40;;;;;;;;;;5098758;28;20363;-80
2022/08/09 12:50:42;;;;;;;4.20;1.50;;;;;;;;;;5091317;28;20053;-77
2022/08/09 12:53:28;;;;;;;2.95;1.63;;;;;;;;;;5096937;28;20107;-78
2022/08/09 12:56:13;;;;;;;3.00;1.48;;;;;;;;;;5089917;28;20024;-79
2022/08/09 12:59:11;;;;;;;5.05;1.38;;;;;;;;;;5087272;28;20031;-69
2022/08/09 13:02:01;;;;;;;6.40;1.67;;;;;;;;;;5092774;28;20036;-72
2022/08/09 13:04:58;;;;;;;2.95;1.30;;;;;;;;;;5094532;28;20061;-74
2022/08/09 13:08:02;;;;;;;3.13;1.42;;;;;;;;;;5090425;28;20415;-74
2022/08/09 13:10:49;;;;;;;4.47;1.80;;;;;;;;;;5081367;28;20359;-72
2022/08/09 13:13:39;;;;;;;3.92;1.50;;;;;;;;;;5091053;28;20110;-74
2022/08/09 13:16:40;;;;;;;3.25;1.80;;;;;;;;;;5094156;28;20028;-80
2022/08/09 13:19:29;;;;;;;3.72;1.35;;;;;;;;;;5089213;28;20120;-78
2022/08/09 13:22:16;;;;;;;3.30;1.60;;;;;;;;;;5086212;28;20063;-77
2022/08/09 13:25:02;;;;;;;4.70;1.63;;;;;;;;;;5087067;28;20059;-79
2022/08/09 13:27:47;;;;;;;3.28;1.45;;;;;;;;;;5080748;28;20071;-79
2022/08/09 13:30:33;;;;;;;1.75;1.27;;;;;;;;;;5076113;28;20093;-74
2022/08/09 13:33:23;;;;;;;3.40;1.38;;;;;;;;;;5096446;28;20019;-78
2022/08/09 13:36:08;;;;;;;4.95;1.92;;;;;;;;;;5095135;28;20051;-78
2022/08/09 13:38:54;;;;;;;3.05;1.73;;;;;;;;;;5097923;28;20039;-86
2022/08/09 13:41:39;;;;;;;2.42;1.50;;;;;;;;;;5089782;28;20119;-79
2022/08/09 13:44:25;;;;;;;3.45;1.50;;;;;;;;;;5088481;28;20103;-80
2022/08/09 13:47:11;;;;;;;2.42;1.33;;;;;;;;;;5093386;28;20032;-80
2022/08/09 13:49:57;;;;;;;2.20;1.10;;;;;;;;;;5071637;28;20085;-67
2022/08/09 13:52:43;;;;;;;4.30;1.70;;;;;;;;;;5082566;28;20025;-76
2022/08/09 13:55:29;;;;;;;4.10;2.05;;;;;;;;;;5082360;28;20466;-77
2022/08/09 13:58:15;;;;;;;2.63;1.23;;;;;;;;;;5067229;28;20459;-74
2022/08/09 14:01:00;;;;;;;2.40;1.23;;;;;;;;;;5061460;28;20112;-74
2022/08/09 14:03:46;;;;;;;2.53;1.30;;;;;;;;;;5068462;28;20493;-74
2022/08/09 14:06:32;;;;;;;4.88;1.63;;;;;;;;;;5101263;28;20039;-80
2022/08/09 14:09:17;;;;;;;6.03;1.85;;;;;;;;;;5098370;28;20118;-78
2022/08/09 14:12:04;;;;;;;2.65;1.63;;;;;;;;;;5085553;28;20047;-73
2022/08/09 14:14:49;;;;;;;2.72;1.45;;;;;;;;;;5087534;28;20051;-73
2022/08/09 14:17:35;;;;;;;4.40;1.70;;;;;;;;;;5092622;28;20505;-73
2022/08/09 14:20:20;;;;;;;1.90;1.20;;;;;;;;;;5079883;28;20031;-72
2022/08/09 14:23:06;;;;;;;2.55;1.55;;;;;;;;;;5078252;28;20382;-74
2022/08/09 14:25:52;;;;;;;2.28;1.40;;;;;;;;;;5069403;28;20432;-63
2022/08/09 14:28:38;;;;;;;2.20;1.42;;;;;;;;;;5083336;28;20446;-67
2022/08/09 14:31:23;;;;;;;1.85;1.38;;;;;;;;;;5083811;28;20029;-67
2022/08/09 14:34:09;;;;;;;1.63;1.15;;;;;;;;;;5075820;28;20103;-66
2022/08/09 14:36:55;;;;;;;1.35;1.05;;;;;;;;;;5096952;28;20067;-66
2022/08/09 14:39:40;;;;;;;2.05;1.50;;;;;;;;;;5108611;28;20019;-66
2022/08/09 14:42:26;;;;;;;1.40;1.30;;;;;;;;;;5095324;28;20063;-67
2022/08/09 14:45:12;;;;;;;2.78;1.30;;;;;;;;;;5085819;28;20110;-66
2022/08/09 14:47:57;;;;;;;1.40;1.30;;;;;;;;;;5082255;28;20044;-68
2022/08/09 14:50:43;;;;;;;2.22;1.58;;;;;;;;;;5105683;28;20035;-71
2022/08/09 14:53:28;;;;;;;1.20;1.10;;;;;;;;;;5094121;28;20032;-68
2022/08/09 14:56:14;;;;;;;4.70;1.40;;;;;;;;;;5088709;28;20025;-69
2022/08/09 14:58:59;;;;;;;4.60;1.77;;;;;;;;;;5069030;28;20039;-67
2022/08/09 15:01:45;;;;;;;1.77;1.58;;;;;;;;;;5053089;28;20054;-67
2022/08/09 15:04:30;;;;;;;1.95;1.10;;;;;;;;;;5093806;28;20100;-61
2022/08/09 15:07:16;;;;;;;1.98;1.20;;;;;;;;;;5082725;28;20024;-62
2022/08/09 15:10:05;;;;;;;3.42;1.48;;;;;;;;;;5095549;28;20122;-63
2022/08/09 15:12:51;;;;;;;2.40;1.30;;;;;;;;;;5074362;28;20115;-62
2022/08/09 15:15:38;;;;;;;5.35;1.80;;;;;;;;;;5091005;28;20058;-63
2022/08/09 15:18:23;;;;;;;2.00;1.30;;;;;;;;;;5081572;28;20031;-62
2022/08/09 15:21:09;;;;;;;2.67;1.35;;;;;;;;;;5078799;28;20028;-62
2022/08/09 15:23:54;;;;;;;3.17;1.40;;;;;;;;;;5091500;28;20201;-69
2022/08/09 15:26:40;;;;;;;3.85;1.27;;;;;;;;;;5085361;28;20106;-67
2022/08/09 15:29:26;;;;;;;6.53;1.75;;;;;;;;;;5080548;28;20089;-68
2022/08/09 15:32:11;;;;;;;2.03;1.40;;;;;;;;;;5090590;28;20178;-68
2022/08/09 15:35:00;;;;;;;4.68;1.42;;;;;;;;;;5095440;28;20051;-66
2022/08/09 15:37:47;;;;;;;1.75;1.20;;;;;;;;;;5073538;28;20029;-68
2022/08/09 15:40:32;;;;;;;1.65;1.30;;;;;;;;;;5084922;28;20036;-64
2022/08/09 15:43:18;;;;;;;4.20;1.17;;;;;;;;;;5087842;28;20120;-67
2022/08/09 15:46:04;;;;;;;3.80;1.40;;;;;;;;;;5072047;28;20035;-67
2022/08/09 15:48:49;;;;;;;2.13;1.38;;;;;;;;;;5077856;28;20130;-69
2022/08/09 15:51:35;;;;;;;2.72;1.40;;;;;;;;;;5078356;28;20060;-68
2022/08/09 15:54:21;;;;;;;2.20;1.38;;;;;;;;;;5077258;28;20056;-68
2022/08/09 15:57:07;;;;;;;1.65;1.30;;;;;;;;;;5076170;28;20024;-68
2022/08/09 15:59:52;;;;;;;2.17;1.35;;;;;;;;;;5074345;28;20063;-74
2022/08/09 16:02:38;;;;;;;2.38;1.30;;;;;;;;;;5083549;28;20375;-64
2022/08/09 16:05:27;;;;;;;2.95;1.27;;;;;;;;;;5082009;28;20375;-63
2022/08/09 16:08:13;;;;;;;2.60;1.40;;;;;;;;;;5087924;28;20024;-63
2022/08/09 16:10:59;;;;;;;2.22;1.27;;;;;;;;;;5088159;28;20607;-62
2022/08/09 16:13:45;;;;;;;3.08;1.52;;;;;;;;;;5093527;28;20073;-62
2022/08/09 16:16:30;;;;;;;5.15;1.55;;;;;;;;;;5084385;28;20127;-74
2022/08/09 16:19:16;;;;;;;4.45;1.35;;;;;;;;;;5072994;28;20493;-69
2022/08/09 16:22:02;;;;;;;1.55;1.45;;;;;;;;;;5079708;28;20447;-68
2022/08/09 16:24:47;;;;;;;2.30;1.60;;;;;;;;;;5085918;28;20031;-69
2022/08/09 16:27:36;;;;;;;3.05;1.67;;;;;;;;;;5085510;28;20027;-68
2022/08/09 16:30:22;;;;;;;2.63;1.58;;;;;;;;;;5079103;28;20103;-70
2022/08/09 16:33:07;;;;;;;3.88;1.38;;;;;;;;;;5094186;28;20028;-70
2022/08/09 16:35:53;;;;;;;4.93;1.67;;;;;;;;;;5084492;28;20032;-63
2022/08/09 16:38:38;;;;;;;3.97;1.40;;;;;;;;;;5086658;28;20056;-62
2022/08/09 16:41:24;;;;;;;3.03;1.70;;;;;;;;;;5084987;28;20543;-63